createdAt,value
2023-01-02T00:04:52.713Z,12.20
2023-01-02T00:12:58.123Z,12.20
2023-01-02T00:21:09.371Z,12.20
2023-01-02T00:29:14.888Z,12.30
2023-01-02T00:37:22.855Z,11.30
2023-01-02T00:45:29.488Z,11.40
2023-01-02T00:53:37.402Z,11.30
2023-01-02T01:01:42.906Z,11.10
2023-01-02T01:09:51.086Z,11.20
2023-01-02T01:17:56.388Z,10.90
2023-01-02T01:26:07.862Z,11.10
2023-01-02T01:34:14.924Z,11.30
2023-01-02T01:42:24.996Z,11.30
2023-01-02T01:50:33.823Z,11.40
2023-01-02T01:58:45.975Z,11.00
2023-01-02T02:06:52.842Z,11.20
2023-01-02T02:15:00.847Z,11.20
2023-01-02T02:23:51.030Z,11.10
2023-01-02T02:32:09.670Z,11.30
2023-01-02T02:40:22.010Z,11.00
2023-01-02T02:48:39.473Z,11.30
2023-01-02T02:56:49.995Z,10.80
2023-01-02T03:05:02.117Z,10.20
2023-01-02T03:13:16.129Z,10.60
2023-01-02T03:21:31.223Z,10.70
2023-01-02T03:29:40.425Z,10.60
2023-01-02T03:37:51.778Z,10.50
2023-01-02T03:46:03.758Z,10.70
2023-01-02T03:54:12.834Z,10.20
2023-01-02T04:02:27.475Z,10.40
2023-01-02T04:10:38.755Z,9.10
2023-01-02T04:18:47.256Z,9.40
2023-01-02T04:26:58.945Z,9.40
2023-01-02T04:35:08.958Z,9.60
2023-01-02T04:43:21.613Z,9.60
2023-01-02T04:51:27.801Z,9.50
2023-01-02T04:59:35.808Z,9.70
2023-01-02T05:07:41.522Z,9.50
2023-01-02T05:15:49.573Z,9.40
2023-01-02T05:23:54.962Z,9.80
2023-01-02T05:32:02.952Z,9.20
2023-01-02T05:40:09.287Z,9.20
2023-01-02T05:48:17.153Z,8.90
2023-01-02T05:56:22.843Z,8.40
2023-01-02T06:04:30.855Z,8.90
2023-01-02T06:12:36.262Z,8.30
2023-01-02T06:20:44.152Z,8.00
2023-01-02T06:28:54.403Z,7.20
2023-01-02T06:37:07.801Z,7.70
2023-01-02T06:45:15.705Z,8.00
2023-01-02T06:53:24.009Z,8.20
2023-01-02T07:01:30.166Z,8.90
2023-01-02T07:09:38.739Z,8.90
2023-01-02T07:17:44.237Z,9.20
2023-01-02T07:25:55.655Z,9.10
2023-01-02T07:34:01.651Z,8.60
2023-01-02T07:42:09.861Z,9.50
2023-01-02T07:50:15.307Z,9.80
2023-01-02T07:58:44.413Z,10.40
2023-01-02T08:15:41.629Z,11.90
2023-01-02T08:23:47.226Z,12.00
2023-01-02T08:31:56.049Z,14.00
2023-01-02T08:40:03.015Z,16.50
2023-01-02T08:48:20.722Z,17.80
2023-01-02T08:56:29.771Z,16.40
2023-01-02T09:04:38.501Z,16.30
2023-01-02T09:12:48.661Z,18.40
2023-01-02T09:20:57.012Z,21.70
2023-01-02T09:29:02.384Z,24.20
2023-01-02T09:37:10.489Z,25.60
2023-01-02T09:45:17.767Z,28.80
2023-01-02T09:53:26.402Z,31.60
2023-01-02T10:01:39.457Z,33.50
2023-01-02T10:09:56.957Z,34.50
2023-01-02T10:18:08.335Z,35.20
2023-01-02T10:26:20.344Z,30.20
2023-01-02T10:34:27.324Z,23.30
2023-01-02T10:42:36.361Z,19.70
2023-01-02T10:50:45.226Z,17.00
2023-01-02T10:58:55.453Z,14.80
2023-01-02T11:15:58.769Z,15.20
2023-01-02T11:24:16.436Z,15.50
2023-01-02T11:32:34.725Z,15.20
2023-01-02T11:50:00.657Z,15.30
2023-01-02T11:58:17.371Z,15.70
2023-01-02T12:06:59.085Z,15.80
2023-01-02T12:15:37.233Z,15.70
2023-01-02T12:24:26.455Z,16.20
2023-01-02T12:33:02.950Z,16.00
2023-01-02T12:42:09.124Z,15.60
2023-01-02T12:50:59.110Z,16.00
2023-01-02T12:59:15.404Z,16.40
2023-01-02T13:07:32.120Z,16.20
2023-01-02T13:15:42.617Z,16.30
2023-01-02T13:23:52.042Z,16.40
2023-01-02T13:31:59.604Z,16.30
2023-01-02T13:40:11.217Z,16.30
2023-01-02T13:48:27.733Z,16.60
2023-01-02T13:56:36.437Z,16.60
2023-01-02T14:04:44.161Z,16.20
2023-01-02T14:12:59.333Z,16.60
2023-01-02T14:21:06.340Z,16.60
2023-01-02T14:29:19.371Z,16.30
2023-01-02T14:37:39.466Z,16.60
2023-01-02T14:45:51.648Z,16.60
2023-01-02T14:54:00.572Z,16.40
2023-01-02T15:02:20.554Z,16.40
2023-01-02T15:10:49.876Z,16.30
2023-01-02T15:19:00.227Z,16.10
2023-01-02T15:27:16.076Z,16.00
2023-01-02T15:35:27.560Z,16.00
2023-01-02T15:43:48.526Z,15.70
2023-01-02T15:51:59.143Z,15.60
2023-01-02T16:00:05.998Z,15.50
2023-01-02T16:08:22.497Z,15.30
2023-01-02T16:16:44.692Z,15.20
2023-01-02T16:25:00.800Z,15.00
2023-01-02T16:33:08.031Z,15.00
2023-01-02T16:41:44.838Z,14.90
2023-01-02T16:49:50.705Z,14.70
2023-01-02T16:58:00.053Z,14.70
2023-01-02T17:06:07.607Z,14.60
2023-01-02T17:14:16.660Z,14.50
2023-01-02T17:22:21.999Z,14.40
2023-01-02T17:30:32.695Z,14.30
2023-01-02T17:38:38.404Z,14.20
2023-01-02T17:47:15.415Z,14.10
2023-01-02T17:55:13.836Z,14.10
2023-01-02T18:03:21.943Z,14.00
2023-01-02T18:11:27.411Z,13.90
2023-01-02T18:19:37.963Z,13.80
2023-01-02T18:27:43.318Z,13.70
2023-01-02T18:35:57.814Z,13.70
2023-01-02T18:44:16.101Z,13.60
2023-01-02T18:52:43.995Z,13.40
2023-01-02T19:00:49.821Z,13.10
2023-01-02T19:09:05.114Z,13.00
2023-01-02T19:17:22.602Z,13.00
2023-01-02T19:25:30.735Z,12.90
2023-01-02T19:33:44.496Z,12.90
2023-01-02T19:42:06.413Z,12.90
2023-01-02T19:50:16.036Z,12.80
2023-01-02T19:58:25.644Z,12.70
2023-01-02T20:06:31.013Z,12.70
2023-01-02T20:14:40.681Z,12.60
2023-01-02T20:23:39.658Z,12.50
2023-01-02T20:31:49.550Z,12.50
2023-01-02T20:39:56.582Z,12.40
2023-01-02T20:48:04.465Z,12.10
2023-01-02T20:56:11.007Z,12.10
2023-01-02T21:04:27.815Z,12.00
2023-01-02T21:12:49.908Z,12.00
2023-01-02T21:21:01.180Z,11.90
2023-01-02T21:29:15.904Z,12.00
2023-01-02T21:37:24.088Z,12.10
2023-01-02T21:45:29.683Z,11.80
2023-01-02T21:53:40.827Z,11.80
2023-01-02T22:01:47.224Z,11.80
2023-01-02T22:09:57.533Z,11.80
2023-01-02T22:18:03.000Z,11.80
2023-01-02T22:26:11.654Z,11.70
2023-01-02T22:34:17.934Z,11.60
2023-01-02T22:51:11.624Z,11.10
2023-01-02T22:59:19.803Z,10.50
2023-01-02T23:07:26.124Z,10.20
2023-01-02T23:15:34.614Z,10.30
2023-01-02T23:23:40.091Z,10.80
2023-01-02T23:31:51.105Z,10.40
2023-01-02T23:39:56.806Z,10.40
2023-01-02T23:48:12.203Z,10.50
2023-01-02T23:56:23.863Z,10.70
